createdAt,value
2019-03-06T00:00:28.885Z,6.89
2019-03-06T00:01:28.936Z,6.89
2019-03-06T00:02:28.953Z,6.88
2019-03-06T00:03:28.907Z,6.91
2019-03-06T00:04:28.873Z,6.89
2019-03-06T00:05:29.024Z,6.89
2019-03-06T00:06:28.873Z,6.87
2019-03-06T00:07:28.875Z,6.87
2019-03-06T00:08:28.877Z,6.87
2019-03-06T00:09:28.927Z,6.9
2019-03-06T00:10:28.922Z,6.89
2019-03-06T00:11:28.852Z,6.89
2019-03-06T00:12:28.854Z,6.89
2019-03-06T00:13:28.875Z,6.89
2019-03-06T00:14:29.583Z,6.9
2019-03-06T00:15:28.934Z,6.84
2019-03-06T00:16:28.880Z,6.85
2019-03-06T00:17:29.013Z,6.87
2019-03-06T00:18:29.073Z,6.86
2019-03-06T00:19:28.884Z,6.87
2019-03-06T00:20:28.876Z,6.86
2019-03-06T00:21:28.885Z,6.87
2019-03-06T00:22:28.892Z,6.88
2019-03-06T00:23:30.002Z,6.86
2019-03-06T00:24:28.861Z,6.86
2019-03-06T00:25:29.035Z,6.86
2019-03-06T00:26:28.855Z,6.85
2019-03-06T00:27:28.833Z,6.84
2019-03-06T00:28:28.858Z,6.83
2019-03-06T00:29:28.881Z,6.84
2019-03-06T00:30:28.864Z,6.86
2019-03-06T00:31:28.884Z,6.85
2019-03-06T00:32:30.061Z,6.85
2019-03-06T00:33:28.894Z,6.83
2019-03-06T00:34:28.900Z,6.83
2019-03-06T00:35:28.860Z,6.84
2019-03-06T00:36:28.862Z,6.84
2019-03-06T00:37:28.843Z,6.83
2019-03-06T00:38:28.847Z,6.83
2019-03-06T00:39:28.909Z,6.82
2019-03-06T00:40:28.845Z,6.83
2019-03-06T00:41:30.126Z,6.84
2019-03-06T00:42:28.830Z,6.82
2019-03-06T00:43:28.904Z,6.84
2019-03-06T00:44:28.897Z,6.81
2019-03-06T00:45:28.892Z,6.83
2019-03-06T00:46:28.913Z,6.81
2019-03-06T00:47:28.859Z,6.81
2019-03-06T00:48:28.836Z,6.79
2019-03-06T00:49:28.803Z,6.8
2019-03-06T00:50:28.839Z,6.82
2019-03-06T00:51:28.848Z,6.83
2019-03-06T00:52:28.853Z,6.8
2019-03-06T00:53:28.853Z,6.81
2019-03-06T00:54:28.815Z,6.82
2019-03-06T00:55:28.831Z,6.82
2019-03-06T00:56:28.864Z,6.8
2019-03-06T00:57:28.825Z,6.78
2019-03-06T00:58:29.598Z,6.77
2019-03-06T00:59:28.807Z,6.78
2019-03-06T01:00:28.814Z,6.76
2019-03-06T01:01:28.820Z,6.76
2019-03-06T01:02:28.818Z,6.76
2019-03-06T01:03:28.820Z,6.78
2019-03-06T01:04:28.823Z,6.77
2019-03-06T01:05:28.901Z,6.78
2019-03-06T01:06:28.818Z,6.79
2019-03-06T01:07:29.598Z,6.78
2019-03-06T01:08:28.818Z,6.8
2019-03-06T01:09:28.803Z,6.78
2019-03-06T01:10:28.805Z,6.75
2019-03-06T01:11:28.836Z,6.79
2019-03-06T01:12:28.810Z,6.77
2019-03-06T01:13:28.850Z,6.77
2019-03-06T01:14:28.807Z,6.78
2019-03-06T01:15:28.815Z,6.78
2019-03-06T01:16:30.047Z,6.76
2019-03-06T01:17:28.827Z,6.76
2019-03-06T01:18:28.791Z,6.74
2019-03-06T01:19:28.791Z,6.75
2019-03-06T01:20:28.772Z,6.74
2019-03-06T01:21:28.778Z,6.74
2019-03-06T01:22:28.780Z,6.75
2019-03-06T01:23:28.769Z,6.74
2019-03-06T01:24:29.137Z,6.72
2019-03-06T01:25:30.412Z,6.73
2019-03-06T01:26:28.854Z,6.73
2019-03-06T01:27:28.792Z,6.72
2019-03-06T01:28:28.756Z,6.72
2019-03-06T01:29:28.779Z,6.71
2019-03-06T01:30:28.821Z,6.71
2019-03-06T01:31:28.767Z,6.69
2019-03-06T01:32:28.779Z,6.72
2019-03-06T01:33:28.757Z,6.73
2019-03-06T01:34:29.759Z,6.7
2019-03-06T01:35:28.799Z,6.71
2019-03-06T01:36:28.746Z,6.71
2019-03-06T01:37:28.764Z,6.69
2019-03-06T01:38:28.744Z,6.69
2019-03-06T01:39:28.778Z,6.7
2019-03-06T01:40:28.756Z,6.68
2019-03-06T01:41:28.793Z,6.7
2019-03-06T01:42:31.464Z,6.68
2019-03-06T01:43:30.330Z,6.7
2019-03-06T01:44:28.756Z,6.67
2019-03-06T01:45:28.787Z,6.69
2019-03-06T01:46:28.868Z,6.71
2019-03-06T01:47:28.843Z,6.71
2019-03-06T01:48:28.771Z,6.7
2019-03-06T01:49:28.755Z,6.69
2019-03-06T01:50:28.764Z,6.69
2019-03-06T01:51:28.718Z,6.68
2019-03-06T01:52:28.720Z,6.71
2019-03-06T01:53:28.775Z,6.69
2019-03-06T01:54:28.723Z,6.7
2019-03-06T01:55:28.891Z,6.69
2019-03-06T01:56:28.785Z,6.65
2019-03-06T01:57:28.741Z,6.68
2019-03-06T01:58:28.848Z,6.69
2019-03-06T01:59:28.805Z,6.68
2019-03-06T02:00:29.293Z,6.67
2019-03-06T02:01:28.763Z,6.68
2019-03-06T02:02:28.745Z,6.65
2019-03-06T02:03:28.722Z,6.67
2019-03-06T02:04:28.731Z,6.66
2019-03-06T02:05:28.775Z,6.65
2019-03-06T02:06:28.753Z,6.67
2019-03-06T02:07:28.725Z,6.67
2019-03-06T02:08:28.754Z,6.66
2019-03-06T02:09:30.094Z,6.67
2019-03-06T02:10:28.729Z,6.67
2019-03-06T02:11:28.714Z,6.64
2019-03-06T02:12:28.730Z,6.63
2019-03-06T02:13:28.699Z,6.64
2019-03-06T02:14:28.723Z,6.6
2019-03-06T02:15:28.730Z,6.61
2019-03-06T02:16:28.746Z,6.63
2019-03-06T02:17:28.805Z,6.62
2019-03-06T02:18:30.151Z,6.62
2019-03-06T02:19:28.698Z,6.6
2019-03-06T02:20:28.711Z,6.61
2019-03-06T02:21:28.700Z,6.62
2019-03-06T02:22:28.693Z,6.6
2019-03-06T02:23:28.730Z,6.61
2019-03-06T02:24:28.674Z,6.61
2019-03-06T02:25:28.688Z,6.6
2019-03-06T02:26:28.669Z,6.59
2019-03-06T02:27:29.801Z,6.6
2019-03-06T02:28:28.666Z,6.59
2019-03-06T02:29:28.706Z,6.59
2019-03-06T02:30:28.808Z,6.59
2019-03-06T02:31:28.826Z,6.58
2019-03-06T02:32:28.724Z,6.58
2019-03-06T02:33:28.700Z,6.58
2019-03-06T02:34:28.727Z,6.57
2019-03-06T02:35:29.436Z,6.57
2019-03-06T02:36:28.743Z,6.56
2019-03-06T02:37:28.689Z,6.56
2019-03-06T02:38:28.739Z,6.55
2019-03-06T02:39:28.718Z,6.55
2019-03-06T02:40:28.782Z,6.52
2019-03-06T02:41:28.685Z,6.54
2019-03-06T02:42:28.697Z,6.52
2019-03-06T02:43:28.721Z,6.5
2019-03-06T02:44:29.819Z,6.51
2019-03-06T02:45:28.685Z,6.51
2019-03-06T02:46:28.801Z,6.53
2019-03-06T02:47:28.693Z,6.5
2019-03-06T02:48:28.760Z,6.5
2019-03-06T02:49:28.700Z,6.5
2019-03-06T02:50:28.682Z,6.51
2019-03-06T02:51:28.707Z,6.51
2019-03-06T02:52:29.629Z,6.49
2019-03-06T02:53:28.813Z,6.49
2019-03-06T02:54:28.680Z,6.51
2019-03-06T02:55:28.676Z,6.5
2019-03-06T02:56:28.712Z,6.49
2019-03-06T02:57:28.643Z,6.5
2019-03-06T02:58:28.724Z,6.49
2019-03-06T02:59:28.695Z,6.48
2019-03-06T03:00:28.718Z,6.48
2019-03-06T03:01:30.230Z,6.48
2019-03-06T03:02:28.691Z,6.47
2019-03-06T03:03:28.642Z,6.47
2019-03-06T03:04:28.642Z,6.47
2019-03-06T03:05:28.668Z,6.46
2019-03-06T03:06:28.669Z,6.47
2019-03-06T03:07:28.638Z,6.46
2019-03-06T03:08:28.673Z,6.46
2019-03-06T03:09:28.805Z,6.45
2019-03-06T03:10:28.703Z,6.44
2019-03-06T03:11:28.707Z,6.46
2019-03-06T03:12:28.640Z,6.46
2019-03-06T03:13:28.650Z,6.45
2019-03-06T03:14:28.968Z,6.43
2019-03-06T03:15:28.655Z,6.43
2019-03-06T03:16:28.679Z,6.44
2019-03-06T03:17:28.650Z,6.43
2019-03-06T03:18:29.831Z,6.44
2019-03-06T03:19:28.673Z,6.45
2019-03-06T03:20:28.649Z,6.44
2019-03-06T03:21:28.645Z,6.46
2019-03-06T03:22:28.632Z,6.47
2019-03-06T03:23:28.678Z,6.46
2019-03-06T03:24:28.660Z,6.45
2019-03-06T03:25:28.682Z,6.47
2019-03-06T03:26:28.622Z,6.46
2019-03-06T03:27:28.621Z,6.45
2019-03-06T03:28:28.603Z,6.47
2019-03-06T03:29:28.626Z,6.46
2019-03-06T03:30:28.723Z,6.44
2019-03-06T03:31:28.682Z,6.44
2019-03-06T03:32:28.613Z,6.45
2019-03-06T03:33:28.673Z,6.42
2019-03-06T03:34:28.679Z,6.42
2019-03-06T03:35:31.159Z,6.44
2019-03-06T03:36:28.586Z,6.43
2019-03-06T03:37:28.636Z,6.42
2019-03-06T03:38:28.638Z,6.42
2019-03-06T03:39:28.623Z,6.42
2019-03-06T03:40:28.638Z,6.42
2019-03-06T03:41:28.587Z,6.43
2019-03-06T03:42:28.620Z,6.4
2019-03-06T03:43:28.608Z,6.4
2019-03-06T03:44:28.607Z,6.4
2019-03-06T03:45:28.622Z,6.41
2019-03-06T03:46:28.590Z,6.42
2019-03-06T03:47:28.617Z,6.41
2019-03-06T03:48:28.628Z,6.41
2019-03-06T03:49:28.638Z,6.42
2019-03-06T03:50:28.580Z,6.39
2019-03-06T03:51:28.623Z,6.39
2019-03-06T03:52:29.572Z,6.4
2019-03-06T03:53:28.631Z,6.41
2019-03-06T03:54:28.598Z,6.4
2019-03-06T03:55:28.586Z,6.39
2019-03-06T03:56:28.610Z,6.4
2019-03-06T03:57:28.581Z,6.4
2019-03-06T03:58:28.555Z,6.4
2019-03-06T03:59:28.573Z,6.39
2019-03-06T04:00:28.615Z,6.4
2019-03-06T04:01:28.583Z,6.38
2019-03-06T04:02:28.569Z,6.38
2019-03-06T04:03:28.599Z,6.35
2019-03-06T04:04:28.582Z,6.37
2019-03-06T04:05:28.593Z,6.36
2019-03-06T04:06:28.584Z,6.38
2019-03-06T04:07:28.575Z,6.35
2019-03-06T04:08:28.565Z,6.38
2019-03-06T04:09:29.863Z,6.35
2019-03-06T04:10:28.610Z,6.35
2019-03-06T04:11:28.595Z,6.36
2019-03-06T04:12:28.601Z,6.35
2019-03-06T04:13:28.608Z,6.38
2019-03-06T04:14:28.544Z,6.35
2019-03-06T04:15:28.552Z,6.37
2019-03-06T04:16:28.579Z,6.36
2019-03-06T04:17:28.701Z,6.34
2019-03-06T04:18:28.566Z,6.34
2019-03-06T04:19:28.590Z,6.32
2019-03-06T04:20:28.573Z,6.34
2019-03-06T04:21:28.553Z,6.34
2019-03-06T04:22:28.553Z,6.33
2019-03-06T04:23:28.550Z,6.32
2019-03-06T04:24:28.552Z,6.32
2019-03-06T04:25:28.535Z,6.33
2019-03-06T04:26:29.875Z,6.33
2019-03-06T04:27:28.607Z,6.33
2019-03-06T04:28:28.521Z,6.32
2019-03-06T04:29:28.533Z,6.32
2019-03-06T04:30:28.511Z,6.29
2019-03-06T04:31:28.523Z,6.3
2019-03-06T04:32:28.558Z,6.31
2019-03-06T04:33:28.503Z,6.32
2019-03-06T04:34:28.531Z,6.31
2019-03-06T04:35:28.523Z,6.3
2019-03-06T04:36:28.511Z,6.3
2019-03-06T04:37:28.511Z,6.28
2019-03-06T04:38:28.483Z,6.3
2019-03-06T04:39:28.482Z,6.28
2019-03-06T04:40:28.473Z,6.3
2019-03-06T04:41:28.516Z,6.3
2019-03-06T04:42:28.488Z,6.31
2019-03-06T04:43:29.576Z,6.29
2019-03-06T04:44:28.532Z,6.31
2019-03-06T04:45:28.488Z,6.3
2019-03-06T04:46:28.525Z,6.29
2019-03-06T04:47:28.495Z,6.3
2019-03-06T04:48:28.497Z,6.31
2019-03-06T04:49:28.498Z,6.29
2019-03-06T04:50:28.514Z,6.28
2019-03-06T04:51:28.487Z,6.27
2019-03-06T04:52:29.674Z,6.29
2019-03-06T04:53:28.488Z,6.28
2019-03-06T04:54:28.471Z,6.27
2019-03-06T04:55:28.480Z,6.27
2019-03-06T04:56:28.474Z,6.27
2019-03-06T04:57:28.477Z,6.27
2019-03-06T04:58:28.500Z,6.26
2019-03-06T04:59:28.480Z,6.24
2019-03-06T05:00:28.482Z,6.26
2019-03-06T05:01:28.536Z,6.25
2019-03-06T05:02:28.449Z,6.24
2019-03-06T05:03:28.470Z,6.24
2019-03-06T05:04:28.486Z,6.24
2019-03-06T05:05:28.455Z,6.24
2019-03-06T05:06:29.438Z,6.26
2019-03-06T05:07:28.507Z,6.23
2019-03-06T05:08:28.471Z,6.23
2019-03-06T05:09:29.393Z,6.24
2019-03-06T05:10:28.507Z,6.23
2019-03-06T05:11:28.460Z,6.23
2019-03-06T05:12:28.507Z,6.22
2019-03-06T05:13:28.445Z,6.22
2019-03-06T05:14:28.472Z,6.21
2019-03-06T05:15:28.434Z,6.22
2019-03-06T05:16:28.430Z,6.21
2019-03-06T05:17:28.475Z,6.21
2019-03-06T05:18:30.015Z,6.22
2019-03-06T05:19:28.509Z,6.22
2019-03-06T05:20:28.484Z,6.22
2019-03-06T05:21:28.453Z,6.2
2019-03-06T05:22:28.486Z,6.18
2019-03-06T05:23:28.438Z,6.21
2019-03-06T05:24:28.434Z,6.21
2019-03-06T05:25:28.502Z,6.19
2019-03-06T05:26:28.435Z,6.18
2019-03-06T05:27:28.425Z,6.18
2019-03-06T05:28:28.448Z,6.18
2019-03-06T05:29:28.424Z,6.18
2019-03-06T05:30:28.416Z,6.16
2019-03-06T05:31:28.450Z,6.16
2019-03-06T05:32:28.458Z,6.16
2019-03-06T05:33:29.013Z,6.15
2019-03-06T05:34:28.543Z,6.13
2019-03-06T05:35:29.538Z,6.14
2019-03-06T05:36:28.458Z,6.15
2019-03-06T05:37:28.450Z,6.12
2019-03-06T05:38:28.422Z,6.13
2019-03-06T05:39:28.445Z,6.14
2019-03-06T05:40:28.491Z,6.12
2019-03-06T05:41:28.414Z,6.13
2019-03-06T05:42:28.430Z,6.14
2019-03-06T05:43:28.413Z,6.12
2019-03-06T05:44:28.980Z,6.13
2019-03-06T05:45:28.390Z,6.13
2019-03-06T05:46:28.428Z,6.1
2019-03-06T05:47:28.404Z,6.12
2019-03-06T05:48:28.455Z,6.1
2019-03-06T05:49:28.424Z,6.17
2019-03-06T05:50:28.387Z,6.13
2019-03-06T05:51:28.381Z,6.1
2019-03-06T05:52:28.450Z,6.08
2019-03-06T05:53:29.297Z,6.06
2019-03-06T05:54:28.391Z,6.06
2019-03-06T05:55:28.401Z,6.06
2019-03-06T05:56:28.411Z,6.06
2019-03-06T05:57:28.379Z,6.06
2019-03-06T05:58:28.384Z,6.05
2019-03-06T05:59:28.394Z,6.03
2019-03-06T06:00:28.373Z,6.03
2019-03-06T06:01:28.454Z,6.04
2019-03-06T06:02:29.280Z,6.03
2019-03-06T06:03:28.374Z,6.04
2019-03-06T06:04:28.402Z,6.02
2019-03-06T06:05:28.656Z,6.02
2019-03-06T06:06:28.407Z,6.04
2019-03-06T06:07:28.388Z,6.04
2019-03-06T06:08:28.460Z,6.03
2019-03-06T06:09:28.389Z,6.04
2019-03-06T06:10:28.389Z,6.03
2019-03-06T06:11:29.867Z,6.02
2019-03-06T06:12:28.372Z,6.03
2019-03-06T06:13:28.433Z,6.03
2019-03-06T06:14:28.379Z,6.02
2019-03-06T06:15:28.387Z,6.02
2019-03-06T06:16:28.367Z,6.02
2019-03-06T06:17:28.422Z,6.01
2019-03-06T06:18:28.371Z,6.01
2019-03-06T06:19:28.372Z,6
2019-03-06T06:20:29.913Z,5.99
2019-03-06T06:21:28.424Z,6.02
2019-03-06T06:22:28.378Z,6.01
2019-03-06T06:23:28.361Z,5.99
2019-03-06T06:24:28.378Z,6.01
2019-03-06T06:25:28.395Z,6
2019-03-06T06:26:28.768Z,6
2019-03-06T06:27:28.369Z,6
2019-03-06T06:28:28.360Z,6.01
2019-03-06T06:29:28.360Z,6
2019-03-06T06:30:28.381Z,5.98
2019-03-06T06:31:28.367Z,5.98
2019-03-06T06:32:28.379Z,5.98
2019-03-06T06:33:28.381Z,5.97
2019-03-06T06:34:28.383Z,5.97
2019-03-06T06:35:28.382Z,5.95
2019-03-06T06:36:28.354Z,5.97
2019-03-06T06:37:29.122Z,5.97
2019-03-06T06:38:28.340Z,5.98
2019-03-06T06:39:28.365Z,5.97
2019-03-06T06:40:28.332Z,5.98
2019-03-06T06:41:28.346Z,5.98
2019-03-06T06:42:28.431Z,5.99
2019-03-06T06:43:28.323Z,5.96
2019-03-06T06:44:28.341Z,5.96
2019-03-06T06:45:28.318Z,5.98
2019-03-06T06:46:29.650Z,5.97
2019-03-06T06:47:28.338Z,5.95
2019-03-06T06:48:28.480Z,5.95
2019-03-06T06:49:28.351Z,5.97
2019-03-06T06:50:28.339Z,5.98
2019-03-06T06:51:28.309Z,5.99
2019-03-06T06:52:28.309Z,5.98
2019-03-06T06:53:28.320Z,6
2019-03-06T06:54:28.317Z,5.97
2019-03-06T06:55:29.839Z,5.96
2019-03-06T06:56:28.440Z,5.96
2019-03-06T06:57:28.310Z,5.96
2019-03-06T06:58:32.003Z,5.98
2019-03-06T06:59:28.523Z,5.98
2019-03-06T07:00:28.289Z,6.01
2019-03-06T07:01:28.371Z,5.95
2019-03-06T07:02:28.309Z,5.97
2019-03-06T07:03:28.301Z,5.95
2019-03-06T07:04:29.385Z,5.95
2019-03-06T07:05:28.292Z,5.97
2019-03-06T07:06:28.294Z,5.98
2019-03-06T07:07:28.343Z,6.01
2019-03-06T07:08:28.286Z,6
2019-03-06T07:09:28.288Z,6.02
2019-03-06T07:10:28.647Z,5.98
2019-03-06T07:11:28.281Z,5.98
2019-03-06T07:12:28.303Z,6
2019-03-06T07:13:29.241Z,5.98
2019-03-06T07:14:28.262Z,5.99
2019-03-06T07:15:28.271Z,6.02
2019-03-06T07:16:28.268Z,6.05
2019-03-06T07:17:28.281Z,6.06
2019-03-06T07:18:28.277Z,6.07
2019-03-06T07:19:28.274Z,6.05
2019-03-06T07:20:28.266Z,6.05
2019-03-06T07:21:28.313Z,6.05
2019-03-06T07:22:28.902Z,6.06
2019-03-06T07:23:28.251Z,6.07
2019-03-06T07:24:28.270Z,6.03
2019-03-06T07:25:28.275Z,6.03
2019-03-06T07:26:28.263Z,6.04
2019-03-06T07:27:28.287Z,6.02
2019-03-06T07:28:28.297Z,6.04
2019-03-06T07:29:28.295Z,6.05
2019-03-06T07:30:28.258Z,6.06
2019-03-06T07:31:28.371Z,6.06
2019-03-06T07:32:28.598Z,6.08
2019-03-06T07:33:28.255Z,6.09
2019-03-06T07:34:28.253Z,6.07
2019-03-06T07:35:28.252Z,6.08
2019-03-06T07:36:28.227Z,6.11
2019-03-06T07:37:29.206Z,6.1
2019-03-06T07:38:28.234Z,6.12
2019-03-06T07:39:28.246Z,6.1
2019-03-06T07:40:28.229Z,6.1
2019-03-06T07:41:28.250Z,6.14
2019-03-06T07:42:28.253Z,6.15
2019-03-06T07:43:28.224Z,6.15
2019-03-06T07:44:30.927Z,6.16
2019-03-06T07:45:28.215Z,6.17
2019-03-06T07:46:28.232Z,6.16
2019-03-06T07:47:28.229Z,6.2
2019-03-06T07:48:28.256Z,6.18
2019-03-06T07:49:28.231Z,6.17
2019-03-06T07:50:29.898Z,6.2
2019-03-06T07:51:28.221Z,6.19
2019-03-06T07:52:28.246Z,6.2
2019-03-06T07:53:28.203Z,6.19
2019-03-06T07:54:28.420Z,6.18
2019-03-06T07:55:28.214Z,6.16
2019-03-06T07:56:28.214Z,6.18
2019-03-06T07:57:28.223Z,6.19
2019-03-06T07:58:28.218Z,6.19
2019-03-06T07:59:29.714Z,6.21
2019-03-06T08:00:28.213Z,6.21
2019-03-06T08:01:28.201Z,6.21
2019-03-06T08:02:28.229Z,6.26
2019-03-06T08:03:28.216Z,6.25
2019-03-06T08:04:28.216Z,6.22
2019-03-06T08:05:28.187Z,6.25
2019-03-06T08:06:28.211Z,6.25
2019-03-06T08:07:28.212Z,6.27
2019-03-06T08:08:29.504Z,6.26
2019-03-06T08:09:28.202Z,6.26
2019-03-06T08:10:28.225Z,6.27
2019-03-06T08:11:28.212Z,6.23
2019-03-06T08:12:28.177Z,6.28
2019-03-06T08:13:28.178Z,6.28
2019-03-06T08:14:28.184Z,6.3
2019-03-06T08:15:28.206Z,6.33
2019-03-06T08:16:28.364Z,6.34
2019-03-06T08:17:29.668Z,6.31
2019-03-06T08:18:28.187Z,6.33
2019-03-06T08:19:28.205Z,6.34
2019-03-06T08:20:28.180Z,6.32
2019-03-06T08:21:28.178Z,6.31
2019-03-06T08:22:28.195Z,6.33
2019-03-06T08:23:28.195Z,6.34
2019-03-06T08:24:28.205Z,6.39
2019-03-06T08:25:28.177Z,6.42
2019-03-06T08:26:28.876Z,6.43
2019-03-06T08:27:28.183Z,6.38
2019-03-06T08:28:28.190Z,6.44
2019-03-06T08:29:28.192Z,6.44
2019-03-06T08:30:28.175Z,6.45
2019-03-06T08:31:28.199Z,6.42
2019-03-06T08:32:28.212Z,6.45
2019-03-06T08:33:28.159Z,6.45
2019-03-06T08:34:28.166Z,6.48
2019-03-06T08:35:29.279Z,6.47
2019-03-06T08:36:28.168Z,6.47
2019-03-06T08:37:28.181Z,6.42
2019-03-06T08:38:29.164Z,6.46
2019-03-06T08:39:28.202Z,6.46
2019-03-06T08:40:28.171Z,6.47
2019-03-06T08:41:28.149Z,6.48
2019-03-06T08:42:28.202Z,6.42
2019-03-06T08:43:28.154Z,6.38
2019-03-06T08:44:29.860Z,6.4
2019-03-06T08:45:28.279Z,6.45
2019-03-06T08:46:28.165Z,6.47
2019-03-06T08:47:28.161Z,6.49
2019-03-06T08:48:28.146Z,6.5
2019-03-06T08:49:28.152Z,6.45
2019-03-06T08:50:28.254Z,6.46
2019-03-06T08:51:28.144Z,6.43
2019-03-06T08:52:28.165Z,6.48
2019-03-06T08:53:29.567Z,6.49
2019-03-06T08:54:28.137Z,6.48
2019-03-06T08:55:29.581Z,6.53
2019-03-06T08:56:28.138Z,6.55
2019-03-06T08:57:28.141Z,6.55
2019-03-06T08:58:28.122Z,6.54
2019-03-06T08:59:28.677Z,6.51
2019-03-06T09:00:29.034Z,6.55
2019-03-06T09:01:28.203Z,6.52
2019-03-06T09:02:29.908Z,6.53
2019-03-06T09:03:28.160Z,6.55
2019-03-06T09:04:28.101Z,6.54
2019-03-06T09:05:28.126Z,6.53
2019-03-06T09:06:28.175Z,6.52
2019-03-06T09:07:28.165Z,6.52
2019-03-06T09:08:28.097Z,6.52
2019-03-06T09:09:28.136Z,6.51
2019-03-06T09:10:28.113Z,6.5
2019-03-06T09:11:29.212Z,6.51
2019-03-06T09:12:28.141Z,6.54
2019-03-06T09:13:28.113Z,6.54
2019-03-06T09:14:28.088Z,6.51
2019-03-06T09:15:28.120Z,6.53
2019-03-06T09:16:28.090Z,6.55
2019-03-06T09:17:28.100Z,6.51
2019-03-06T09:18:28.099Z,6.51
2019-03-06T09:19:28.128Z,6.52
2019-03-06T09:20:41.270Z,6.53
2019-03-06T09:21:28.099Z,6.55
2019-03-06T09:22:28.273Z,6.55
2019-03-06T09:23:28.111Z,6.54
2019-03-06T09:24:28.109Z,6.55
2019-03-06T09:25:28.095Z,6.55
2019-03-06T09:26:28.089Z,6.56
2019-03-06T09:27:28.116Z,6.52
2019-03-06T09:28:28.112Z,6.53
2019-03-06T09:29:29.128Z,6.52
2019-03-06T09:30:28.074Z,6.54
2019-03-06T09:31:28.108Z,6.55
2019-03-06T09:32:28.122Z,6.52
2019-03-06T09:33:28.087Z,6.58
2019-03-06T09:34:28.553Z,6.54
2019-03-06T09:35:28.083Z,6.51
2019-03-06T09:36:28.065Z,6.52
2019-03-06T09:37:28.085Z,6.48
2019-03-06T09:38:29.499Z,6.55
2019-03-06T09:39:28.058Z,6.53
2019-03-06T09:40:28.065Z,6.51
2019-03-06T09:41:28.067Z,6.58
2019-03-06T09:42:28.090Z,6.6
2019-03-06T09:43:28.074Z,6.57
2019-03-06T09:44:28.219Z,6.59
2019-03-06T09:45:28.082Z,6.61
2019-03-06T09:46:28.061Z,6.57
2019-03-06T09:47:28.052Z,6.62
2019-03-06T09:48:28.064Z,6.62
2019-03-06T09:49:28.071Z,6.58
2019-03-06T09:50:28.061Z,6.59
2019-03-06T09:51:28.074Z,6.62
2019-03-06T09:52:28.233Z,6.62
2019-03-06T09:53:28.063Z,6.61
2019-03-06T09:54:28.071Z,6.51
2019-03-06T09:55:28.570Z,6.35
2019-03-06T09:56:28.033Z,6.23
2019-03-06T09:57:28.127Z,6.21
2019-03-06T09:58:28.129Z,6.25
2019-03-06T09:59:28.054Z,6.18
2019-03-06T10:00:28.033Z,6.12
2019-03-06T10:01:28.066Z,6.02
2019-03-06T10:02:28.069Z,6.16
2019-03-06T10:03:28.079Z,6.24
2019-03-06T10:04:29.262Z,6.22
2019-03-06T10:05:28.018Z,6.21
2019-03-06T10:06:28.339Z,6.31
2019-03-06T10:07:28.051Z,6.33
2019-03-06T10:08:28.055Z,6.33
2019-03-06T10:09:28.031Z,6.37
2019-03-06T10:10:28.050Z,6.23
2019-03-06T10:11:28.036Z,6.26
2019-03-06T10:12:28.016Z,6.27
2019-03-06T10:13:29.470Z,6.38
2019-03-06T10:14:28.102Z,6.35
2019-03-06T10:15:28.014Z,6.42
2019-03-06T10:16:28.046Z,6.4
2019-03-06T10:17:30.582Z,6.46
2019-03-06T10:18:28.078Z,6.44
2019-03-06T10:19:29.845Z,6.32
2019-03-06T10:20:28.033Z,6.37
2019-03-06T10:21:28.046Z,6.41
2019-03-06T10:22:28.024Z,6.46
2019-03-06T10:23:28.069Z,6.56
2019-03-06T10:24:28.085Z,6.57
2019-03-06T10:25:33.605Z,6.52
2019-03-06T10:26:29.247Z,6.54
2019-03-06T10:27:28.064Z,6.42
2019-03-06T10:28:28.376Z,6.5
2019-03-06T10:29:28.114Z,6.55
2019-03-06T10:30:28.745Z,6.64
2019-03-06T10:31:28.073Z,6.51
2019-03-06T10:32:28.067Z,6.54
2019-03-06T10:33:28.073Z,6.56
2019-03-06T10:34:28.067Z,6.59
2019-03-06T10:35:29.137Z,6.68
2019-03-06T10:36:28.286Z,6.68
2019-03-06T10:37:28.234Z,6.66
2019-03-06T10:38:28.126Z,6.53
2019-03-06T10:39:28.066Z,6.53
2019-03-06T10:40:28.843Z,6.52
2019-03-06T10:41:28.132Z,6.6
2019-03-06T10:42:28.064Z,6.56
2019-03-06T10:43:28.067Z,6.58
2019-03-06T10:44:30.355Z,6.52
2019-03-06T10:45:29.636Z,6.58
2019-03-06T10:46:28.086Z,6.57
2019-03-06T10:47:28.175Z,6.48
2019-03-06T10:48:28.069Z,6.55
2019-03-06T10:49:28.168Z,6.5
2019-03-06T10:50:31.909Z,6.59
2019-03-06T10:51:28.138Z,6.66
2019-03-06T10:52:28.175Z,6.57
2019-03-06T10:53:28.060Z,6.52
2019-03-06T10:54:28.057Z,6.42
2019-03-06T10:55:29.108Z,6.46
2019-03-06T10:56:28.070Z,6.23
2019-03-06T10:57:28.072Z,6.49
2019-03-06T10:58:28.045Z,6.4
2019-03-06T10:59:28.123Z,6.41
2019-03-06T11:00:30.351Z,6.25
2019-03-06T11:01:28.155Z,6.27
2019-03-06T11:02:28.040Z,6.31
2019-03-06T11:03:28.019Z,6.32
2019-03-06T11:04:28.074Z,6.23
2019-03-06T11:05:28.097Z,6.2
2019-03-06T11:06:28.039Z,6.19
2019-03-06T11:07:28.107Z,6.19
2019-03-06T11:08:28.032Z,6.27
2019-03-06T11:09:28.083Z,6.07
2019-03-06T11:10:29.190Z,6.09
2019-03-06T11:11:28.155Z,6.09
2019-03-06T11:12:28.154Z,6.03
2019-03-06T11:13:28.097Z,6.09
2019-03-06T11:14:28.089Z,6.03
2019-03-06T11:15:28.037Z,6.1
2019-03-06T11:16:41.225Z,6.18
2019-03-06T11:17:29.339Z,6.2
2019-03-06T11:18:28.119Z,6.1
2019-03-06T11:19:28.003Z,6.28
2019-03-06T11:20:27.979Z,6.23
2019-03-06T11:21:27.988Z,6.11
2019-03-06T11:22:27.987Z,6.19
2019-03-06T11:23:28.002Z,6.27
2019-03-06T11:24:28.027Z,6.46
2019-03-06T11:25:27.999Z,6.21
2019-03-06T11:26:28.037Z,6.27
2019-03-06T11:27:28.238Z,6.43
2019-03-06T11:28:28.089Z,6.4
2019-03-06T11:29:27.995Z,6.23
2019-03-06T11:30:27.956Z,6.39
2019-03-06T11:31:28.033Z,6.32
2019-03-06T11:32:28.298Z,6.34
2019-03-06T11:33:29.049Z,6.25
2019-03-06T11:34:27.999Z,6.12
2019-03-06T11:35:27.972Z,6.08
2019-03-06T11:36:27.948Z,6.37
2019-03-06T11:37:27.998Z,6.33
2019-03-06T11:38:27.974Z,6.21
2019-03-06T11:39:28.016Z,6.26
2019-03-06T11:40:27.997Z,6.39
2019-03-06T11:41:29.092Z,6.34
2019-03-06T11:42:27.954Z,6.31
2019-03-06T11:43:27.986Z,6.25
2019-03-06T11:44:27.988Z,6.18
2019-03-06T11:45:27.956Z,6.41
2019-03-06T11:46:27.940Z,6.18
2019-03-06T11:47:27.944Z,6.31
2019-03-06T11:48:27.931Z,6.46
2019-03-06T11:49:28.628Z,6.11
2019-03-06T11:50:27.967Z,6.07
2019-03-06T11:51:28.046Z,6.07
2019-03-06T11:52:27.935Z,6.08
2019-03-06T11:53:27.917Z,6.13
2019-03-06T11:54:28.121Z,6.43
2019-03-06T11:55:27.955Z,6.1
2019-03-06T11:56:27.941Z,6.19
2019-03-06T11:57:27.954Z,6.09
2019-03-06T11:58:27.923Z,6.07
2019-03-06T11:59:27.937Z,6.25
2019-03-06T12:00:27.953Z,6.18
2019-03-06T12:01:27.924Z,5.93
2019-03-06T12:02:27.941Z,6.07
2019-03-06T12:03:27.954Z,6.14
2019-03-06T12:04:29.040Z,6.06
2019-03-06T12:05:27.956Z,6.22
2019-03-06T12:06:27.938Z,6.36
2019-03-06T12:07:27.961Z,6.18
2019-03-06T12:08:27.941Z,6.19
2019-03-06T12:09:27.992Z,6.28
2019-03-06T12:10:27.941Z,6.16
2019-03-06T12:11:27.955Z,6.17
2019-03-06T12:12:29.380Z,6.2
2019-03-06T12:13:27.971Z,6.22
2019-03-06T12:14:27.898Z,6.25
2019-03-06T12:15:28.069Z,6.32
2019-03-06T12:16:28.879Z,6.34
2019-03-06T12:17:27.959Z,6.34
2019-03-06T12:18:28.089Z,6.29
2019-03-06T12:19:28.301Z,6.34
2019-03-06T12:20:27.926Z,6.35
2019-03-06T12:21:27.944Z,6.37
2019-03-06T12:22:27.980Z,6.2
2019-03-06T12:23:27.901Z,6.31
2019-03-06T12:24:27.875Z,6.37
2019-03-06T12:25:27.884Z,6.43
2019-03-06T12:26:27.914Z,6.37
2019-03-06T12:27:28.846Z,6.44
2019-03-06T12:28:27.898Z,6.37
2019-03-06T12:29:28.212Z,6.45
2019-03-06T12:30:27.881Z,6.3
2019-03-06T12:31:27.879Z,6.14
2019-03-06T12:32:27.877Z,6.24
2019-03-06T12:33:27.894Z,6.29
2019-03-06T12:34:28.131Z,6.2
2019-03-06T12:35:27.866Z,6.18
2019-03-06T12:36:27.862Z,6.29
2019-03-06T12:37:28.137Z,6.15
2019-03-06T12:38:28.205Z,6.38
2019-03-06T12:39:27.882Z,6.22
2019-03-06T12:40:27.847Z,6.31
2019-03-06T12:41:27.853Z,6.25
2019-03-06T12:42:27.856Z,6.23
2019-03-06T12:43:27.852Z,6.09
2019-03-06T12:44:29.308Z,6.15
2019-03-06T12:45:27.844Z,6.08
2019-03-06T12:46:27.863Z,6.09
2019-03-06T12:47:27.857Z,6.24
2019-03-06T12:48:27.841Z,6.22
2019-03-06T12:49:27.880Z,6.16
2019-03-06T12:50:27.841Z,6.25
2019-03-06T12:51:27.917Z,6.27
2019-03-06T12:52:30.243Z,6.29
2019-03-06T12:53:27.831Z,6.23
2019-03-06T12:54:27.834Z,6.16
2019-03-06T12:55:27.890Z,6.25
2019-03-06T12:56:27.901Z,6.3
2019-03-06T12:57:27.860Z,5.97
2019-03-06T12:58:27.827Z,6.19
2019-03-06T12:59:28.061Z,6.12
2019-03-06T13:00:28.598Z,6.07
2019-03-06T13:01:27.857Z,6.14
2019-03-06T13:02:27.820Z,5.91
2019-03-06T13:03:27.826Z,6.15
2019-03-06T13:04:27.834Z,5.84
2019-03-06T13:05:27.867Z,5.95
2019-03-06T13:06:27.881Z,5.93
2019-03-06T13:07:27.907Z,6
2019-03-06T13:08:29.167Z,6.04
2019-03-06T13:09:27.875Z,5.99
2019-03-06T13:10:27.864Z,5.92
2019-03-06T13:11:27.829Z,6.05
2019-03-06T13:12:29.563Z,5.91
2019-03-06T13:13:36.182Z,6.08
2019-03-06T13:14:30.815Z,5.89
2019-03-06T13:15:27.891Z,5.86
2019-03-06T13:16:28.807Z,5.88
2019-03-06T13:17:27.838Z,5.86
2019-03-06T13:18:27.907Z,5.93
2019-03-06T13:19:27.851Z,5.81
2019-03-06T13:20:27.860Z,5.92
2019-03-06T13:21:27.854Z,5.93